createdAt,value
2023-03-02T00:02:27.071Z,118.72
2023-03-02T00:07:36.755Z,103.88
2023-03-02T00:12:43.151Z,134.18
2023-03-02T00:17:49.424Z,87.70
2023-03-02T00:22:55.764Z,109.20
2023-03-02T00:28:02.077Z,100.60
2023-03-02T00:33:09.714Z,84.22
2023-03-02T00:38:16.529Z,77.80
2023-03-02T00:43:24.597Z,81.57
2023-03-02T00:48:30.895Z,146.05
2023-03-02T00:58:44.068Z,114.93
2023-03-02T01:03:50.628Z,159.50
2023-03-02T01:08:58.126Z,141.25
2023-03-02T01:14:04.272Z,127.18
2023-03-02T01:19:11.813Z,169.00
2023-03-02T01:24:18.220Z,140.80
2023-03-02T01:29:24.619Z,174.80
2023-03-02T01:34:31.076Z,153.38
2023-03-02T01:39:56.563Z,170.75
2023-03-02T01:45:03.589Z,159.48
2023-03-02T01:50:21.000Z,158.60
2023-03-02T01:55:33.403Z,163.10
2023-03-02T02:00:41.537Z,159.57
2023-03-02T02:06:11.643Z,172.05
2023-03-02T02:11:18.324Z,160.27
2023-03-02T02:16:30.683Z,161.02
2023-03-02T02:21:37.848Z,155.65
2023-03-02T02:26:56.622Z,147.88
2023-03-02T02:32:15.816Z,110.15
2023-03-02T02:37:27.020Z,171.88
2023-03-02T02:42:38.676Z,157.38
2023-03-02T02:47:45.420Z,112.80
2023-03-02T02:53:10.127Z,130.30
2023-03-02T02:58:42.387Z,129.45
2023-03-02T03:04:01.444Z,125.63
2023-03-02T03:09:09.961Z,148.23
2023-03-02T03:14:32.930Z,155.17
2023-03-02T03:19:39.055Z,134.60
2023-03-02T03:24:48.708Z,138.18
2023-03-02T03:29:57.318Z,167.13
2023-03-02T03:35:10.274Z,150.23
2023-03-02T03:40:17.551Z,137.02
2023-03-02T03:45:25.476Z,127.30
2023-03-02T03:50:32.207Z,117.47
2023-03-02T03:55:38.687Z,113.05
2023-03-02T04:00:44.874Z,115.38
2023-03-02T04:05:51.262Z,83.10
2023-03-02T04:10:58.050Z,99.47
2023-03-02T04:16:04.995Z,128.20
2023-03-02T04:21:11.627Z,103.53
2023-03-02T04:32:52.655Z,128.02
2023-03-02T04:38:01.078Z,111.18
2023-03-02T04:43:07.674Z,114.82
2023-03-02T04:48:14.169Z,121.18
2023-03-02T04:53:20.522Z,118.93
2023-03-02T04:58:26.877Z,108.72
2023-03-02T05:03:33.318Z,120.70
2023-03-02T05:08:39.798Z,130.73
2023-03-02T05:13:46.350Z,116.88
2023-03-02T05:18:53.006Z,120.60
2023-03-02T05:24:12.056Z,110.70
2023-03-02T05:29:18.709Z,117.78
2023-03-02T05:34:24.858Z,124.70
2023-03-02T05:39:34.315Z,128.73
2023-03-02T05:44:40.324Z,113.03
2023-03-02T05:49:49.943Z,115.13
2023-03-02T05:54:59.086Z,129.52
2023-03-02T06:00:13.807Z,101.82
2023-03-02T06:05:24.387Z,106.97
2023-03-02T06:10:31.173Z,104.82
2023-03-02T06:15:44.974Z,105.60
2023-03-02T06:39:50.149Z,113.45
2023-03-02T06:45:00.961Z,109.90
2023-03-02T06:50:07.908Z,121.35
2023-03-02T06:55:15.795Z,116.05
2023-03-02T07:00:28.485Z,111.68
2023-03-02T07:05:35.328Z,122.50
2023-03-02T07:16:32.979Z,114.70
2023-03-02T07:21:51.033Z,114.28
2023-03-02T07:27:30.005Z,55.70
2023-03-02T07:32:36.566Z,80.55
2023-03-02T07:37:43.279Z,62.35
2023-03-02T07:42:50.079Z,92.88
2023-03-02T07:47:57.606Z,59.58
2023-03-02T07:53:04.871Z,83.70
2023-03-02T07:58:11.571Z,115.65
2023-03-02T08:03:18.032Z,105.20
2023-03-02T08:08:24.813Z,110.57
2023-03-02T08:13:31.330Z,120.97
2023-03-02T08:18:38.446Z,104.70
2023-03-02T08:23:45.008Z,103.43
2023-03-02T08:28:51.680Z,118.70
2023-03-02T08:34:01.386Z,119.32
2023-03-02T08:39:11.638Z,112.18
2023-03-02T08:44:19.965Z,75.70
2023-03-02T08:49:28.656Z,58.33
2023-03-02T08:54:39.268Z,90.38
2023-03-02T08:59:48.528Z,103.05
2023-03-02T09:04:58.839Z,117.45
2023-03-02T09:10:05.825Z,80.47
2023-03-02T09:15:13.646Z,84.85
2023-03-02T09:20:20.474Z,99.03
2023-03-02T09:25:27.028Z,96.43
2023-03-02T09:30:34.349Z,92.78
2023-03-02T09:35:42.365Z,146.48
2023-03-02T09:41:15.000Z,127.30
2023-03-02T09:46:40.576Z,143.10
2023-03-02T09:52:23.261Z,142.35
2023-03-02T09:57:38.597Z,116.40
2023-03-02T10:03:16.242Z,140.48
2023-03-02T10:08:26.918Z,113.65
2023-03-02T10:13:56.870Z,143.05
2023-03-02T10:19:29.598Z,138.63
2023-03-02T10:24:42.713Z,90.18
2023-03-02T10:30:11.136Z,107.82
2023-03-02T10:35:24.747Z,128.85
2023-03-02T10:40:47.849Z,108.72
2023-03-02T10:46:06.321Z,120.80
2023-03-02T10:51:25.449Z,116.10
2023-03-02T10:56:32.630Z,92.65
2023-03-02T11:01:39.072Z,141.93
2023-03-02T11:06:45.306Z,132.00
2023-03-02T11:17:40.460Z,130.93
2023-03-02T11:23:15.203Z,104.43
2023-03-02T11:28:54.974Z,138.75
2023-03-02T11:34:19.666Z,120.72
2023-03-02T11:39:32.147Z,126.68
2023-03-02T11:44:38.542Z,116.13
2023-03-02T11:50:00.120Z,111.85
2023-03-02T11:55:16.812Z,117.43
2023-03-02T12:05:41.712Z,104.20
2023-03-02T12:11:02.014Z,126.25
2023-03-02T12:16:24.316Z,124.10
2023-03-02T12:21:42.259Z,137.00
2023-03-02T12:26:48.837Z,133.43
2023-03-02T12:31:57.803Z,119.25
2023-03-02T12:37:20.381Z,122.88
2023-03-02T12:42:42.155Z,133.05
2023-03-02T12:47:53.651Z,129.43
2023-03-02T12:53:02.869Z,130.05
2023-03-02T12:58:27.127Z,127.65
2023-03-02T13:03:35.112Z,132.07
2023-03-02T13:08:49.373Z,127.75
2023-03-02T13:14:02.682Z,140.52
2023-03-02T13:19:24.110Z,144.52
2023-03-02T13:24:57.170Z,155.50
2023-03-02T13:35:58.201Z,136.55
2023-03-02T13:41:25.898Z,141.23
2023-03-02T13:46:58.893Z,133.38
2023-03-02T13:52:30.278Z,137.15
2023-03-02T13:58:12.697Z,144.38
2023-03-02T14:09:15.629Z,148.10
2023-03-02T14:20:12.776Z,145.57
2023-03-02T14:25:23.041Z,129.25
2023-03-02T14:30:37.379Z,136.10
2023-03-02T14:35:50.238Z,130.02
2023-03-02T14:41:01.384Z,130.80
2023-03-02T14:46:48.392Z,137.48
2023-03-02T14:52:20.957Z,132.50
2023-03-02T14:57:44.834Z,115.15
2023-03-02T15:03:13.677Z,133.20
2023-03-02T15:08:26.275Z,130.77
2023-03-02T15:13:35.134Z,132.55
2023-03-02T15:18:57.776Z,133.73
2023-03-02T15:29:23.506Z,130.80
2023-03-02T15:34:43.308Z,122.18
2023-03-02T15:40:25.846Z,130.45
2023-03-02T15:45:37.782Z,131.13
2023-03-02T15:50:45.391Z,121.68
2023-03-02T15:55:55.123Z,120.78
2023-03-02T16:01:32.239Z,133.88
2023-03-02T16:06:39.152Z,118.95
2023-03-02T16:11:52.823Z,113.22
2023-03-02T16:29:28.619Z,109.13
2023-03-02T16:34:35.219Z,123.45
2023-03-02T16:39:41.527Z,119.80
2023-03-02T16:44:53.322Z,125.32
2023-03-02T16:50:00.347Z,119.00
2023-03-02T16:55:10.052Z,118.57
2023-03-02T17:00:19.431Z,107.80
2023-03-02T17:05:36.467Z,117.85
2023-03-02T17:10:43.561Z,112.78
2023-03-02T17:28:35.091Z,86.18
2023-03-02T17:33:42.004Z,111.03
2023-03-02T17:38:48.370Z,120.68
2023-03-02T17:43:54.642Z,118.43
2023-03-02T17:49:02.919Z,117.43
2023-03-02T17:54:10.577Z,130.00
2023-03-02T17:59:16.849Z,126.78
2023-03-02T18:04:23.424Z,125.07
2023-03-02T18:09:30.110Z,123.57
2023-03-02T18:14:37.893Z,119.88
2023-03-02T18:19:44.559Z,121.68
2023-03-02T18:24:52.124Z,129.00
2023-03-02T18:29:58.095Z,135.15
2023-03-02T18:35:04.423Z,132.68
2023-03-02T18:40:11.457Z,128.27
2023-03-02T18:45:26.289Z,128.90
2023-03-02T18:50:33.211Z,137.18
2023-03-02T18:55:39.609Z,131.68
2023-03-02T19:00:47.562Z,143.30
2023-03-02T19:05:57.605Z,155.90
2023-03-02T19:11:04.898Z,144.10
2023-03-02T19:16:14.195Z,161.68
2023-03-02T19:21:20.914Z,145.80
2023-03-02T19:26:27.183Z,146.50
2023-03-02T19:31:35.015Z,136.00
2023-03-02T19:36:41.405Z,157.25
2023-03-02T19:41:48.723Z,146.18
2023-03-02T19:46:55.387Z,141.98
2023-03-02T19:52:02.458Z,148.15
2023-03-02T19:57:09.833Z,150.93
2023-03-02T20:02:17.447Z,151.50
2023-03-02T20:07:23.667Z,142.55
2023-03-02T20:12:30.007Z,154.60
2023-03-02T20:17:36.566Z,158.32
2023-03-02T20:22:42.805Z,156.32
2023-03-02T20:32:59.111Z,155.52
2023-03-02T20:38:09.777Z,142.60
2023-03-02T20:43:16.530Z,148.95
2023-03-02T20:48:24.025Z,162.48
2023-03-02T20:53:31.469Z,169.32
2023-03-02T20:58:42.816Z,151.60
2023-03-02T21:03:49.250Z,155.00
2023-03-02T21:08:56.088Z,158.80
2023-03-02T21:14:03.725Z,157.38
2023-03-02T21:19:16.933Z,158.60
2023-03-02T21:24:24.518Z,156.85
2023-03-02T21:29:31.893Z,172.63
2023-03-02T21:34:38.912Z,166.25
2023-03-02T21:39:45.409Z,166.18
2023-03-02T21:49:57.158Z,157.68
2023-03-02T21:55:03.395Z,165.52
2023-03-02T22:00:11.778Z,156.95
2023-03-02T22:05:18.615Z,158.27
2023-03-02T22:10:36.716Z,149.50
2023-03-02T22:15:43.887Z,167.70
2023-03-02T22:20:54.153Z,153.25
2023-03-02T22:26:14.801Z,154.52
2023-03-02T22:31:24.064Z,154.75
2023-03-02T22:36:31.818Z,159.38
2023-03-02T22:41:38.144Z,155.02
2023-03-02T22:47:21.755Z,158.57
2023-03-02T22:52:40.033Z,153.55
2023-03-02T22:59:01.889Z,179.40
2023-03-02T23:04:28.684Z,152.10
2023-03-02T23:09:37.709Z,175.48
2023-03-02T23:14:59.107Z,195.25
2023-03-02T23:20:06.778Z,180.98
2023-03-02T23:25:44.022Z,195.32
2023-03-02T23:30:50.697Z,166.45
2023-03-02T23:35:57.497Z,172.68
2023-03-02T23:41:04.373Z,217.15
2023-03-02T23:46:15.609Z,193.65
2023-03-02T23:51:22.535Z,160.13
2023-03-02T23:56:29.126Z,186.88
